sensor_id;sensor_type;location;lat;lon;timestamp;P1;durP1;ratioP1;P2;durP2;ratioP2
30635;SDS011;17400;52.392;9.750;2022-11-15T00:01:11;10.32;;;7.28;;
30635;SDS011;17400;52.392;9.750;2022-11-15T00:03:43;11.35;;;6.45;;
30635;SDS011;17400;52.392;9.750;2022-11-15T00:06:11;14.23;;;8.43;;
30635;SDS011;17400;52.392;9.750;2022-11-15T00:08:39;12.73;;;6.70;;
30635;SDS011;17400;52.392;9.750;2022-11-15T00:11:08;13.25;;;6.50;;
30635;SDS011;17400;52.392;9.750;2022-11-15T00:13:39;11.98;;;6.32;;
30635;SDS011;17400;52.392;9.750;2022-11-15T00:16:08;13.40;;;7.47;;
30635;SDS011;17400;52.392;9.750;2022-11-15T00:18:37;11.35;;;6.45;;
30635;SDS011;17400;52.392;9.750;2022-11-15T00:21:05;11.38;;;6.47;;
30635;SDS011;17400;52.392;9.750;2022-11-15T00:23:35;12.65;;;7.93;;
30635;SDS011;17400;52.392;9.750;2022-11-15T00:26:03;13.40;;;7.53;;
30635;SDS011;17400;52.392;9.750;2022-11-15T00:28:31;13.27;;;7.43;;
30635;SDS011;17400;52.392;9.750;2022-11-15T00:31:00;14.85;;;6.95;;
30635;SDS011;17400;52.392;9.750;2022-11-15T00:33:30;11.18;;;6.53;;
30635;SDS011;17400;52.392;9.750;2022-11-15T00:35:59;11.77;;;6.53;;
30635;SDS011;17400;52.392;9.750;2022-11-15T00:38:30;11.68;;;6.13;;
30635;SDS011;17400;52.392;9.750;2022-11-15T00:40:59;14.43;;;7.55;;
30635;SDS011;17400;52.392;9.750;2022-11-15T00:43:34;11.80;;;7.75;;
30635;SDS011;17400;52.392;9.750;2022-11-15T00:46:02;11.52;;;7.30;;
30635;SDS011;17400;52.392;9.750;2022-11-15T00:48:31;14.18;;;8.40;;
30635;SDS011;17400;52.392;9.750;2022-11-15T00:50:59;14.07;;;7.40;;
30635;SDS011;17400;52.392;9.750;2022-11-15T00:53:27;14.15;;;7.00;;
30635;SDS011;17400;52.392;9.750;2022-11-15T00:55:55;9.15;;;5.93;;
30635;SDS011;17400;52.392;9.750;2022-11-15T00:58:23;10.93;;;6.88;;
30635;SDS011;17400;52.392;9.750;2022-11-15T01:00:51;12.05;;;6.07;;
30635;SDS011;17400;52.392;9.750;2022-11-15T01:03:19;12.70;;;6.63;;
30635;SDS011;17400;52.392;9.750;2022-11-15T01:05:48;12.10;;;7.35;;
30635;SDS011;17400;52.392;9.750;2022-11-15T01:08:16;13.98;;;7.15;;
30635;SDS011;17400;52.392;9.750;2022-11-15T01:10:44;11.30;;;6.03;;
30635;SDS011;17400;52.392;9.750;2022-11-15T01:13:11;11.88;;;6.93;;
30635;SDS011;17400;52.392;9.750;2022-11-15T01:15:39;13.98;;;6.90;;
30635;SDS011;17400;52.392;9.750;2022-11-15T01:18:07;9.30;;;6.10;;
30635;SDS011;17400;52.392;9.750;2022-11-15T01:20:38;10.95;;;6.32;;
30635;SDS011;17400;52.392;9.750;2022-11-15T01:23:08;12.35;;;6.75;;
30635;SDS011;17400;52.392;9.750;2022-11-15T01:25:36;9.02;;;5.95;;
30635;SDS011;17400;52.392;9.750;2022-11-15T01:28:04;13.48;;;6.47;;
30635;SDS011;17400;52.392;9.750;2022-11-15T01:30:32;11.27;;;7.32;;
30635;SDS011;17400;52.392;9.750;2022-11-15T01:33:00;12.57;;;6.75;;
30635;SDS011;17400;52.392;9.750;2022-11-15T01:35:27;12.65;;;6.88;;
30635;SDS011;17400;52.392;9.750;2022-11-15T01:37:55;12.88;;;7.35;;
30635;SDS011;17400;52.392;9.750;2022-11-15T01:40:25;13.10;;;6.65;;
30635;SDS011;17400;52.392;9.750;2022-11-15T01:42:52;11.88;;;6.88;;
30635;SDS011;17400;52.392;9.750;2022-11-15T01:45:20;12.27;;;6.63;;
30635;SDS011;17400;52.392;9.750;2022-11-15T01:47:48;10.90;;;7.13;;
30635;SDS011;17400;52.392;9.750;2022-11-15T01:50:20;11.70;;;6.57;;
30635;SDS011;17400;52.392;9.750;2022-11-15T01:52:51;13.13;;;7.55;;
30635;SDS011;17400;52.392;9.750;2022-11-15T01:55:20;13.10;;;7.43;;
30635;SDS011;17400;52.392;9.750;2022-11-15T01:57:53;10.05;;;6.70;;
30635;SDS011;17400;52.392;9.750;2022-11-15T02:00:24;11.80;;;6.22;;
30635;SDS011;17400;52.392;9.750;2022-11-15T02:02:52;11.80;;;7.55;;
30635;SDS011;17400;52.392;9.750;2022-11-15T02:05:21;10.93;;;6.70;;
30635;SDS011;17400;52.392;9.750;2022-11-15T02:07:49;14.77;;;7.53;;
30635;SDS011;17400;52.392;9.750;2022-11-15T02:10:18;16.20;;;7.07;;
30635;SDS011;17400;52.392;9.750;2022-11-15T02:12:48;9.93;;;6.30;;
30635;SDS011;17400;52.392;9.750;2022-11-15T02:15:18;12.10;;;7.10;;
30635;SDS011;17400;52.392;9.750;2022-11-15T02:17:53;12.20;;;7.32;;
30635;SDS011;17400;52.392;9.750;2022-11-15T02:20:36;10.25;;;6.32;;
30635;SDS011;17400;52.392;9.750;2022-11-15T02:23:30;9.63;;;5.95;;
30635;SDS011;17400;52.392;9.750;2022-11-15T02:26:18;9.88;;;6.63;;
30635;SDS011;17400;52.392;9.750;2022-11-15T02:28:58;11.40;;;6.60;;
30635;SDS011;17400;52.392;9.750;2022-11-15T02:31:34;9.75;;;5.57;;
30635;SDS011;17400;52.392;9.750;2022-11-15T02:34:08;12.32;;;5.57;;
30635;SDS011;17400;52.392;9.750;2022-11-15T02:36:46;9.05;;;5.32;;
30635;SDS011;17400;52.392;9.750;2022-11-15T02:39:24;11.60;;;5.95;;
30635;SDS011;17400;52.392;9.750;2022-11-15T02:42:00;7.80;;;4.78;;
30635;SDS011;17400;52.392;9.750;2022-11-15T02:44:30;10.27;;;5.93;;
30635;SDS011;17400;52.392;9.750;2022-11-15T02:47:03;9.95;;;6.13;;
30635;SDS011;17400;52.392;9.750;2022-11-15T02:49:40;11.35;;;6.97;;
30635;SDS011;17400;52.392;9.750;2022-11-15T02:52:14;11.77;;;6.80;;
30635;SDS011;17400;52.392;9.750;2022-11-15T02:54:52;9.90;;;6.30;;
30635;SDS011;17400;52.392;9.750;2022-11-15T02:57:24;10.63;;;6.05;;
30635;SDS011;17400;52.392;9.750;2022-11-15T03:00:07;12.40;;;6.28;;
30635;SDS011;17400;52.392;9.750;2022-11-15T03:02:51;9.50;;;6.03;;
30635;SDS011;17400;52.392;9.750;2022-11-15T03:05:30;8.85;;;5.70;;
30635;SDS011;17400;52.392;9.750;2022-11-15T03:08:06;11.07;;;6.30;;
30635;SDS011;17400;52.392;9.750;2022-11-15T03:10:41;10.57;;;6.55;;
30635;SDS011;17400;52.392;9.750;2022-11-15T03:13:16;11.52;;;6.38;;
30635;SDS011;17400;52.392;9.750;2022-11-15T03:15:50;9.85;;;6.22;;
30635;SDS011;17400;52.392;9.750;2022-11-15T03:18:27;10.68;;;6.00;;
30635;SDS011;17400;52.392;9.750;2022-11-15T03:20:59;9.35;;;6.72;;
30635;SDS011;17400;52.392;9.750;2022-11-15T03:23:30;10.75;;;5.75;;
30635;SDS011;17400;52.392;9.750;2022-11-15T03:26:00;8.93;;;5.78;;
30635;SDS011;17400;52.392;9.750;2022-11-15T03:28:31;10.05;;;4.88;;
30635;SDS011;17400;52.392;9.750;2022-11-15T03:31:03;8.80;;;5.53;;
30635;SDS011;17400;52.392;9.750;2022-11-15T03:33:55;9.35;;;5.70;;
30635;SDS011;17400;52.392;9.750;2022-11-15T03:36:25;11.02;;;6.55;;
30635;SDS011;17400;52.392;9.750;2022-11-15T03:38:54;10.82;;;6.28;;
30635;SDS011;17400;52.392;9.750;2022-11-15T03:41:28;9.80;;;5.50;;
30635;SDS011;17400;52.392;9.750;2022-11-15T03:44:04;8.30;;;5.63;;
30635;SDS011;17400;52.392;9.750;2022-11-15T03:46:42;11.05;;;5.10;;
30635;SDS011;17400;52.392;9.750;2022-11-15T03:49:17;12.35;;;5.55;;
30635;SDS011;17400;52.392;9.750;2022-11-15T03:51:50;8.95;;;5.65;;
30635;SDS011;17400;52.392;9.750;2022-11-15T03:54:18;9.27;;;5.35;;
30635;SDS011;17400;52.392;9.750;2022-11-15T03:56:45;7.22;;;4.72;;
30635;SDS011;17400;52.392;9.750;2022-11-15T03:59:13;6.63;;;4.65;;
30635;SDS011;17400;52.392;9.750;2022-11-15T04:01:41;8.65;;;4.95;;
30635;SDS011;17400;52.392;9.750;2022-11-15T04:04:09;10.27;;;5.32;;
30635;SDS011;17400;52.392;9.750;2022-11-15T04:06:38;7.88;;;5.03;;
30635;SDS011;17400;52.392;9.750;2022-11-15T04:09:06;9.75;;;5.45;;
30635;SDS011;17400;52.392;9.750;2022-11-15T04:11:34;8.25;;;4.97;;
30635;SDS011;17400;52.392;9.750;2022-11-15T04:14:01;11.63;;;4.82;;
30635;SDS011;17400;52.392;9.750;2022-11-15T04:16:29;8.88;;;4.60;;
30635;SDS011;17400;52.392;9.750;2022-11-15T04:18:57;8.18;;;4.88;;
30635;SDS011;17400;52.392;9.750;2022-11-15T04:21:44;7.63;;;3.70;;
30635;SDS011;17400;52.392;9.750;2022-11-15T04:24:29;6.75;;;4.28;;
30635;SDS011;17400;52.392;9.750;2022-11-15T04:26:57;8.00;;;5.05;;
30635;SDS011;17400;52.392;9.750;2022-11-15T04:29:24;7.85;;;4.80;;
30635;SDS011;17400;52.392;9.750;2022-11-15T04:32:02;6.00;;;4.38;;
30635;SDS011;17400;52.392;9.750;2022-11-15T04:34:30;9.50;;;4.55;;
30635;SDS011;17400;52.392;9.750;2022-11-15T04:37:00;7.90;;;4.07;;
30635;SDS011;17400;52.392;9.750;2022-11-15T04:39:42;6.68;;;3.15;;
30635;SDS011;17400;52.392;9.750;2022-11-15T04:42:10;7.22;;;4.78;;
30635;SDS011;17400;52.392;9.750;2022-11-15T04:44:38;6.20;;;4.00;;
30635;SDS011;17400;52.392;9.750;2022-11-15T04:47:06;5.82;;;3.38;;
30635;SDS011;17400;52.392;9.750;2022-11-15T04:49:34;6.55;;;3.40;;
30635;SDS011;17400;52.392;9.750;2022-11-15T04:52:03;5.47;;;3.90;;
30635;SDS011;17400;52.392;9.750;2022-11-15T04:54:31;8.90;;;5.05;;
30635;SDS011;17400;52.392;9.750;2022-11-15T04:56:59;8.57;;;4.43;;
30635;SDS011;17400;52.392;9.750;2022-11-15T04:59:26;5.15;;;3.35;;
30635;SDS011;17400;52.392;9.750;2022-11-15T05:01:54;6.25;;;3.45;;
30635;SDS011;17400;52.392;9.750;2022-11-15T05:04:22;6.15;;;4.15;;
30635;SDS011;17400;52.392;9.750;2022-11-15T05:06:49;6.90;;;3.67;;
30635;SDS011;17400;52.392;9.750;2022-11-15T05:09:20;4.90;;;2.80;;
30635;SDS011;17400;52.392;9.750;2022-11-15T05:11:48;6.20;;;3.03;;
30635;SDS011;17400;52.392;9.750;2022-11-15T05:14:16;6.72;;;3.80;;
30635;SDS011;17400;52.392;9.750;2022-11-15T05:16:43;10.52;;;3.50;;
30635;SDS011;17400;52.392;9.750;2022-11-15T05:19:11;8.02;;;4.35;;
30635;SDS011;17400;52.392;9.750;2022-11-15T05:21:39;7.45;;;5.10;;
30635;SDS011;17400;52.392;9.750;2022-11-15T05:24:08;6.75;;;3.90;;
30635;SDS011;17400;52.392;9.750;2022-11-15T05:26:38;8.98;;;3.88;;
30635;SDS011;17400;52.392;9.750;2022-11-15T05:29:06;6.45;;;3.88;;
30635;SDS011;17400;52.392;9.750;2022-11-15T05:31:38;7.78;;;3.85;;
30635;SDS011;17400;52.392;9.750;2022-11-15T05:34:07;5.00;;;3.50;;
30635;SDS011;17400;52.392;9.750;2022-11-15T05:36:35;5.15;;;3.15;;
30635;SDS011;17400;52.392;9.750;2022-11-15T05:39:05;8.70;;;3.85;;
30635;SDS011;17400;52.392;9.750;2022-11-15T05:41:35;6.72;;;3.75;;
30635;SDS011;17400;52.392;9.750;2022-11-15T05:44:09;5.70;;;2.85;;
30635;SDS011;17400;52.392;9.750;2022-11-15T05:46:40;6.15;;;3.25;;
30635;SDS011;17400;52.392;9.750;2022-11-15T05:49:10;5.82;;;3.13;;
30635;SDS011;17400;52.392;9.750;2022-11-15T05:51:40;6.53;;;3.40;;
30635;SDS011;17400;52.392;9.750;2022-11-15T05:54:09;6.20;;;3.53;;
30635;SDS011;17400;52.392;9.750;2022-11-15T05:56:39;6.22;;;3.53;;
30635;SDS011;17400;52.392;9.750;2022-11-15T05:59:08;6.57;;;3.88;;
30635;SDS011;17400;52.392;9.750;2022-11-15T06:01:36;5.30;;;3.22;;
30635;SDS011;17400;52.392;9.750;2022-11-15T06:04:05;13.68;;;4.80;;
30635;SDS011;17400;52.392;9.750;2022-11-15T06:06:33;9.25;;;4.63;;
30635;SDS011;17400;52.392;9.750;2022-11-15T06:09:01;9.30;;;5.68;;
30635;SDS011;17400;52.392;9.750;2022-11-15T06:11:30;9.88;;;5.80;;
30635;SDS011;17400;52.392;9.750;2022-11-15T06:14:00;8.15;;;5.80;;
30635;SDS011;17400;52.392;9.750;2022-11-15T06:16:28;9.25;;;5.60;;
30635;SDS011;17400;52.392;9.750;2022-11-15T06:18:56;7.65;;;4.38;;
30635;SDS011;17400;52.392;9.750;2022-11-15T06:21:23;6.88;;;4.13;;
30635;SDS011;17400;52.392;9.750;2022-11-15T06:23:54;6.65;;;4.55;;
30635;SDS011;17400;52.392;9.750;2022-11-15T06:26:22;6.30;;;4.07;;
30635;SDS011;17400;52.392;9.750;2022-11-15T06:28:49;7.32;;;4.80;;
30635;SDS011;17400;52.392;9.750;2022-11-15T06:31:18;7.35;;;4.15;;
30635;SDS011;17400;52.392;9.750;2022-11-15T06:33:46;9.68;;;4.63;;
30635;SDS011;17400;52.392;9.750;2022-11-15T06:36:15;8.82;;;4.25;;
30635;SDS011;17400;52.392;9.750;2022-11-15T06:38:44;5.95;;;4.13;;
30635;SDS011;17400;52.392;9.750;2022-11-15T06:41:12;8.65;;;4.13;;
30635;SDS011;17400;52.392;9.750;2022-11-15T06:43:41;8.32;;;4.30;;
30635;SDS011;17400;52.392;9.750;2022-11-15T06:46:09;8.20;;;4.63;;
30635;SDS011;17400;52.392;9.750;2022-11-15T06:48:39;8.05;;;4.80;;
30635;SDS011;17400;52.392;9.750;2022-11-15T06:51:07;11.25;;;4.80;;
30635;SDS011;17400;52.392;9.750;2022-11-15T06:53:35;6.80;;;3.85;;
30635;SDS011;17400;52.392;9.750;2022-11-15T06:56:04;6.25;;;3.63;;
30635;SDS011;17400;52.392;9.750;2022-11-15T06:58:33;7.25;;;4.60;;
30635;SDS011;17400;52.392;9.750;2022-11-15T07:01:02;8.10;;;4.20;;
30635;SDS011;17400;52.392;9.750;2022-11-15T07:03:33;8.13;;;5.13;;
30635;SDS011;17400;52.392;9.750;2022-11-15T07:06:03;7.30;;;3.80;;
30635;SDS011;17400;52.392;9.750;2022-11-15T07:08:33;7.07;;;3.95;;
30635;SDS011;17400;52.392;9.750;2022-11-15T07:11:03;7.13;;;4.28;;
30635;SDS011;17400;52.392;9.750;2022-11-15T07:13:32;9.27;;;5.20;;
30635;SDS011;17400;52.392;9.750;2022-11-15T07:16:02;7.63;;;4.75;;
30635;SDS011;17400;52.392;9.750;2022-11-15T07:18:30;9.02;;;4.22;;
30635;SDS011;17400;52.392;9.750;2022-11-15T07:21:00;7.35;;;4.10;;
30635;SDS011;17400;52.392;9.750;2022-11-15T07:23:30;4.68;;;3.20;;
30635;SDS011;17400;52.392;9.750;2022-11-15T07:25:58;5.18;;;3.38;;
30635;SDS011;17400;52.392;9.750;2022-11-15T07:28:26;5.95;;;3.42;;
30635;SDS011;17400;52.392;9.750;2022-11-15T07:30:55;7.70;;;3.83;;
30635;SDS011;17400;52.392;9.750;2022-11-15T07:33:23;6.30;;;3.75;;
30635;SDS011;17400;52.392;9.750;2022-11-15T07:35:51;4.93;;;3.35;;
30635;SDS011;17400;52.392;9.750;2022-11-15T07:38:18;5.88;;;3.85;;
30635;SDS011;17400;52.392;9.750;2022-11-15T07:40:55;5.57;;;3.67;;
30635;SDS011;17400;52.392;9.750;2022-11-15T07:43:23;11.00;;;3.90;;
30635;SDS011;17400;52.392;9.750;2022-11-15T07:45:52;8.60;;;3.97;;
30635;SDS011;17400;52.392;9.750;2022-11-15T07:48:24;5.43;;;3.33;;
30635;SDS011;17400;52.392;9.750;2022-11-15T07:51:09;7.93;;;4.05;;
30635;SDS011;17400;52.392;9.750;2022-11-15T07:53:40;9.70;;;3.95;;
30635;SDS011;17400;52.392;9.750;2022-11-15T07:56:09;9.10;;;4.43;;
30635;SDS011;17400;52.392;9.750;2022-11-15T07:58:37;7.75;;;3.80;;
30635;SDS011;17400;52.392;9.750;2022-11-15T08:01:05;7.97;;;3.95;;
30635;SDS011;17400;52.392;9.750;2022-11-15T08:03:34;6.70;;;4.15;;
30635;SDS011;17400;52.392;9.750;2022-11-15T08:06:03;4.90;;;3.53;;
30635;SDS011;17400;52.392;9.750;2022-11-15T08:08:31;6.22;;;3.45;;
30635;SDS011;17400;52.392;9.750;2022-11-15T08:10:59;4.70;;;2.83;;
30635;SDS011;17400;52.392;9.750;2022-11-15T08:13:28;7.28;;;3.53;;
30635;SDS011;17400;52.392;9.750;2022-11-15T08:15:59;5.68;;;3.47;;
30635;SDS011;17400;52.392;9.750;2022-11-15T08:18:27;5.60;;;2.95;;
30635;SDS011;17400;52.392;9.750;2022-11-15T08:20:58;5.40;;;3.25;;
30635;SDS011;17400;52.392;9.750;2022-11-15T08:23:26;6.07;;;3.70;;
30635;SDS011;17400;52.392;9.750;2022-11-15T08:25:58;5.47;;;3.28;;
30635;SDS011;17400;52.392;9.750;2022-11-15T08:28:29;4.85;;;3.20;;
30635;SDS011;17400;52.392;9.750;2022-11-15T08:30:57;11.90;;;4.20;;
30635;SDS011;17400;52.392;9.750;2022-11-15T08:33:25;8.63;;;3.13;;
30635;SDS011;17400;52.392;9.750;2022-11-15T08:35:55;6.80;;;3.17;;
30635;SDS011;17400;52.392;9.750;2022-11-15T08:38:23;5.90;;;3.13;;
30635;SDS011;17400;52.392;9.750;2022-11-15T08:40:51;6.82;;;3.72;;
30635;SDS011;17400;52.392;9.750;2022-11-15T08:43:23;6.70;;;3.63;;
30635;SDS011;17400;52.392;9.750;2022-11-15T08:45:52;7.72;;;4.20;;
30635;SDS011;17400;52.392;9.750;2022-11-15T08:48:22;6.45;;;3.80;;
30635;SDS011;17400;52.392;9.750;2022-11-15T08:50:52;8.65;;;4.18;;
30635;SDS011;17400;52.392;9.750;2022-11-15T08:53:21;6.03;;;3.95;;
30635;SDS011;17400;52.392;9.750;2022-11-15T08:55:49;7.72;;;3.25;;
30635;SDS011;17400;52.392;9.750;2022-11-15T08:58:17;7.00;;;4.43;;
30635;SDS011;17400;52.392;9.750;2022-11-15T09:00:45;5.32;;;3.50;;
30635;SDS011;17400;52.392;9.750;2022-11-15T09:03:14;6.93;;;4.28;;
30635;SDS011;17400;52.392;9.750;2022-11-15T09:05:42;6.80;;;3.83;;
30635;SDS011;17400;52.392;9.750;2022-11-15T09:08:09;5.45;;;3.63;;
30635;SDS011;17400;52.392;9.750;2022-11-15T09:10:57;6.15;;;4.43;;
30635;SDS011;17400;52.392;9.750;2022-11-15T09:13:25;8.60;;;4.50;;
30635;SDS011;17400;52.392;9.750;2022-11-15T09:15:56;7.57;;;3.70;;
30635;SDS011;17400;52.392;9.750;2022-11-15T09:18:26;6.10;;;3.92;;
30635;SDS011;17400;52.392;9.750;2022-11-15T09:20:54;4.50;;;3.10;;
30635;SDS011;17400;52.392;9.750;2022-11-15T09:23:24;9.02;;;4.65;;
30635;SDS011;17400;52.392;9.750;2022-11-15T09:25:57;10.48;;;3.55;;
30635;SDS011;17400;52.392;9.750;2022-11-15T09:28:26;5.32;;;3.80;;
30635;SDS011;17400;52.392;9.750;2022-11-15T09:30:55;5.10;;;3.25;;
30635;SDS011;17400;52.392;9.750;2022-11-15T09:33:26;5.47;;;3.35;;
30635;SDS011;17400;52.392;9.750;2022-11-15T09:35:59;8.18;;;3.67;;
30635;SDS011;17400;52.392;9.750;2022-11-15T09:38:27;8.43;;;3.80;;
30635;SDS011;17400;52.392;9.750;2022-11-15T09:40:59;6.88;;;3.25;;
30635;SDS011;17400;52.392;9.750;2022-11-15T09:43:47;4.47;;;3.13;;
30635;SDS011;17400;52.392;9.750;2022-11-15T09:46:28;5.22;;;3.30;;
30635;SDS011;17400;52.392;9.750;2022-11-15T09:49:07;4.18;;;2.38;;
30635;SDS011;17400;52.392;9.750;2022-11-15T09:51:37;5.43;;;3.55;;
30635;SDS011;17400;52.392;9.750;2022-11-15T09:54:26;5.32;;;3.38;;
30635;SDS011;17400;52.392;9.750;2022-11-15T09:57:16;5.03;;;3.17;;
30635;SDS011;17400;52.392;9.750;2022-11-15T09:59:53;5.97;;;2.80;;
30635;SDS011;17400;52.392;9.750;2022-11-15T10:02:52;4.65;;;3.05;;
30635;SDS011;17400;52.392;9.750;2022-11-15T10:05:31;6.40;;;3.55;;
30635;SDS011;17400;52.392;9.750;2022-11-15T10:08:10;5.47;;;3.17;;
30635;SDS011;17400;52.392;9.750;2022-11-15T10:10:48;6.80;;;3.30;;
30635;SDS011;17400;52.392;9.750;2022-11-15T10:13:40;4.68;;;3.10;;
30635;SDS011;17400;52.392;9.750;2022-11-15T10:16:15;4.80;;;3.53;;
30635;SDS011;17400;52.392;9.750;2022-11-15T10:18:54;5.75;;;3.50;;
30635;SDS011;17400;52.392;9.750;2022-11-15T10:21:35;9.73;;;4.47;;
30635;SDS011;17400;52.392;9.750;2022-11-15T10:24:12;6.35;;;3.15;;
30635;SDS011;17400;52.392;9.750;2022-11-15T10:26:46;7.93;;;3.28;;
30635;SDS011;17400;52.392;9.750;2022-11-15T10:29:17;6.05;;;3.63;;
30635;SDS011;17400;52.392;9.750;2022-11-15T10:31:52;5.07;;;3.10;;
30635;SDS011;17400;52.392;9.750;2022-11-15T10:34:20;7.97;;;3.60;;
30635;SDS011;17400;52.392;9.750;2022-11-15T10:36:55;6.90;;;3.33;;
30635;SDS011;17400;52.392;9.750;2022-11-15T10:39:24;5.03;;;3.10;;
30635;SDS011;17400;52.392;9.750;2022-11-15T10:41:52;4.88;;;2.72;;
30635;SDS011;17400;52.392;9.750;2022-11-15T10:44:22;5.50;;;3.20;;
30635;SDS011;17400;52.392;9.750;2022-11-15T10:47:05;4.93;;;2.50;;
30635;SDS011;17400;52.392;9.750;2022-11-15T10:49:56;5.18;;;2.85;;
30635;SDS011;17400;52.392;9.750;2022-11-15T10:52:27;5.13;;;2.58;;
30635;SDS011;17400;52.392;9.750;2022-11-15T10:54:58;3.55;;;2.33;;
30635;SDS011;17400;52.392;9.750;2022-11-15T10:57:31;5.07;;;2.70;;
30635;SDS011;17400;52.392;9.750;2022-11-15T11:00:05;4.43;;;2.70;;
30635;SDS011;17400;52.392;9.750;2022-11-15T11:02:36;4.25;;;2.20;;
30635;SDS011;17400;52.392;9.750;2022-11-15T11:05:06;3.33;;;2.00;;
30635;SDS011;17400;52.392;9.750;2022-11-15T11:07:56;5.20;;;3.03;;
30635;SDS011;17400;52.392;9.750;2022-11-15T11:10:25;5.55;;;3.08;;
30635;SDS011;17400;52.392;9.750;2022-11-15T11:13:13;9.30;;;3.33;;
30635;SDS011;17400;52.392;9.750;2022-11-15T11:15:50;5.07;;;3.65;;
30635;SDS011;17400;52.392;9.750;2022-11-15T11:18:23;4.70;;;3.00;;
30635;SDS011;17400;52.392;9.750;2022-11-15T11:20:57;6.85;;;2.47;;
30635;SDS011;17400;52.392;9.750;2022-11-15T11:23:37;7.20;;;2.92;;
30635;SDS011;17400;52.392;9.750;2022-11-15T11:26:20;8.02;;;4.28;;
30635;SDS011;17400;52.392;9.750;2022-11-15T11:29:02;4.93;;;3.08;;
30635;SDS011;17400;52.392;9.750;2022-11-15T11:31:45;4.72;;;2.58;;
30635;SDS011;17400;52.392;9.750;2022-11-15T11:34:29;5.72;;;2.20;;
30635;SDS011;17400;52.392;9.750;2022-11-15T11:37:11;4.28;;;2.70;;
30635;SDS011;17400;52.392;9.750;2022-11-15T11:39:48;3.10;;;1.88;;
30635;SDS011;17400;52.392;9.750;2022-11-15T11:42:32;4.88;;;2.38;;
30635;SDS011;17400;52.392;9.750;2022-11-15T11:45:11;4.60;;;2.72;;
30635;SDS011;17400;52.392;9.750;2022-11-15T11:47:46;5.25;;;2.35;;
30635;SDS011;17400;52.392;9.750;2022-11-15T11:50:17;3.67;;;2.85;;
30635;SDS011;17400;52.392;9.750;2022-11-15T11:52:52;3.33;;;2.10;;
30635;SDS011;17400;52.392;9.750;2022-11-15T11:55:31;4.00;;;2.55;;
30635;SDS011;17400;52.392;9.750;2022-11-15T11:58:04;4.18;;;2.70;;
30635;SDS011;17400;52.392;9.750;2022-11-15T12:00:38;6.15;;;2.33;;
30635;SDS011;17400;52.392;9.750;2022-11-15T12:03:10;4.55;;;2.65;;
30635;SDS011;17400;52.392;9.750;2022-11-15T12:05:42;7.45;;;2.97;;
30635;SDS011;17400;52.392;9.750;2022-11-15T12:08:20;3.50;;;2.17;;
30635;SDS011;17400;52.392;9.750;2022-11-15T12:11:00;5.97;;;3.30;;
30635;SDS011;17400;52.392;9.750;2022-11-15T12:13:34;6.45;;;3.50;;
30635;SDS011;17400;52.392;9.750;2022-11-15T12:16:06;5.40;;;2.78;;
30635;SDS011;17400;52.392;9.750;2022-11-15T12:18:38;3.45;;;2.17;;
30635;SDS011;17400;52.392;9.750;2022-11-15T12:21:13;4.10;;;2.78;;
30635;SDS011;17400;52.392;9.750;2022-11-15T12:23:54;4.07;;;2.92;;
30635;SDS011;17400;52.392;9.750;2022-11-15T12:26:28;8.18;;;2.88;;
30635;SDS011;17400;52.392;9.750;2022-11-15T12:29:03;4.80;;;2.90;;
30635;SDS011;17400;52.392;9.750;2022-11-15T12:31:38;4.05;;;2.60;;
30635;SDS011;17400;52.392;9.750;2022-11-15T12:34:13;6.18;;;2.60;;
30635;SDS011;17400;52.392;9.750;2022-11-15T12:36:58;4.68;;;2.70;;
30635;SDS011;17400;52.392;9.750;2022-11-15T12:42:39;3.72;;;2.33;;
30635;SDS011;17400;52.392;9.750;2022-11-15T12:45:23;3.28;;;2.33;;
30635;SDS011;17400;52.392;9.750;2022-11-15T12:47:54;4.47;;;2.92;;
30635;SDS011;17400;52.392;9.750;2022-11-15T12:50:55;4.55;;;2.70;;
30635;SDS011;17400;52.392;9.750;2022-11-15T12:53:28;5.53;;;2.72;;
30635;SDS011;17400;52.392;9.750;2022-11-15T12:56:09;4.10;;;2.40;;
30635;SDS011;17400;52.392;9.750;2022-11-15T12:58:48;4.80;;;2.70;;
30635;SDS011;17400;52.392;9.750;2022-11-15T13:04:25;6.25;;;3.70;;
30635;SDS011;17400;52.392;9.750;2022-11-15T13:06:55;5.38;;;3.00;;
30635;SDS011;17400;52.392;9.750;2022-11-15T13:15:33;4.13;;;2.88;;
30635;SDS011;17400;52.392;9.750;2022-11-15T13:20:58;4.57;;;2.60;;
30635;SDS011;17400;52.392;9.750;2022-11-15T13:23:28;3.03;;;2.05;;
30635;SDS011;17400;52.392;9.750;2022-11-15T13:25:59;5.53;;;3.67;;
30635;SDS011;17400;52.392;9.750;2022-11-15T13:28:39;3.00;;;2.08;;
30635;SDS011;17400;52.392;9.750;2022-11-15T13:31:26;4.28;;;2.58;;
30635;SDS011;17400;52.392;9.750;2022-11-15T13:33:59;3.33;;;2.08;;
30635;SDS011;17400;52.392;9.750;2022-11-15T13:36:29;9.35;;;3.42;;
30635;SDS011;17400;52.392;9.750;2022-11-15T13:39:00;5.95;;;2.72;;
30635;SDS011;17400;52.392;9.750;2022-11-15T13:41:29;4.97;;;3.10;;
30635;SDS011;17400;52.392;9.750;2022-11-15T13:44:00;5.03;;;2.90;;
30635;SDS011;17400;52.392;9.750;2022-11-15T13:46:30;4.35;;;2.63;;
30635;SDS011;17400;52.392;9.750;2022-11-15T13:49:00;3.53;;;2.80;;
30635;SDS011;17400;52.392;9.750;2022-11-15T13:51:34;4.32;;;2.25;;
30635;SDS011;17400;52.392;9.750;2022-11-15T13:54:07;5.63;;;3.65;;
30635;SDS011;17400;52.392;9.750;2022-11-15T13:56:47;8.80;;;2.80;;
30635;SDS011;17400;52.392;9.750;2022-11-15T13:59:20;4.00;;;2.15;;
30635;SDS011;17400;52.392;9.750;2022-11-15T14:01:53;4.88;;;2.10;;
30635;SDS011;17400;52.392;9.750;2022-11-15T14:04:23;4.60;;;2.75;;
30635;SDS011;17400;52.392;9.750;2022-11-15T14:06:56;5.00;;;3.00;;
30635;SDS011;17400;52.392;9.750;2022-11-15T14:09:30;3.92;;;2.28;;
30635;SDS011;17400;52.392;9.750;2022-11-15T14:12:03;3.42;;;1.95;;
30635;SDS011;17400;52.392;9.750;2022-11-15T14:14:50;3.85;;;2.20;;
30635;SDS011;17400;52.392;9.750;2022-11-15T14:17:20;4.43;;;3.40;;
30635;SDS011;17400;52.392;9.750;2022-11-15T14:20:00;3.60;;;2.28;;
30635;SDS011;17400;52.392;9.750;2022-11-15T14:22:28;4.63;;;2.47;;
30635;SDS011;17400;52.392;9.750;2022-11-15T14:25:12;3.40;;;2.30;;
30635;SDS011;17400;52.392;9.750;2022-11-15T14:27:42;5.72;;;2.70;;
30635;SDS011;17400;52.392;9.750;2022-11-15T14:30:13;5.65;;;3.55;;
30635;SDS011;17400;52.392;9.750;2022-11-15T14:32:44;5.50;;;3.17;;
30635;SDS011;17400;52.392;9.750;2022-11-15T14:35:14;4.00;;;2.55;;
30635;SDS011;17400;52.392;9.750;2022-11-15T14:37:44;3.17;;;2.28;;
30635;SDS011;17400;52.392;9.750;2022-11-15T14:40:13;6.82;;;3.08;;
30635;SDS011;17400;52.392;9.750;2022-11-15T14:42:43;3.92;;;2.47;;
30635;SDS011;17400;52.392;9.750;2022-11-15T14:45:14;4.97;;;2.70;;
30635;SDS011;17400;52.392;9.750;2022-11-15T14:47:44;4.25;;;2.63;;
30635;SDS011;17400;52.392;9.750;2022-11-15T14:50:13;5.30;;;3.03;;
30635;SDS011;17400;52.392;9.750;2022-11-15T14:52:42;2.72;;;1.75;;
30635;SDS011;17400;52.392;9.750;2022-11-15T14:55:12;4.22;;;2.20;;
30635;SDS011;17400;52.392;9.750;2022-11-15T14:57:45;7.38;;;2.70;;
30635;SDS011;17400;52.392;9.750;2022-11-15T15:00:13;5.00;;;3.17;;
30635;SDS011;17400;52.392;9.750;2022-11-15T15:02:42;5.43;;;2.78;;
30635;SDS011;17400;52.392;9.750;2022-11-15T15:05:14;7.00;;;2.55;;
30635;SDS011;17400;52.392;9.750;2022-11-15T15:07:43;3.38;;;2.10;;
30635;SDS011;17400;52.392;9.750;2022-11-15T15:10:12;5.18;;;1.98;;
30635;SDS011;17400;52.392;9.750;2022-11-15T15:13:00;5.25;;;3.45;;
30635;SDS011;17400;52.392;9.750;2022-11-15T15:15:33;4.28;;;2.90;;
30635;SDS011;17400;52.392;9.750;2022-11-15T15:18:01;4.20;;;2.65;;
30635;SDS011;17400;52.392;9.750;2022-11-15T15:20:32;4.95;;;2.42;;
30635;SDS011;17400;52.392;9.750;2022-11-15T15:23:00;5.30;;;2.30;;
30635;SDS011;17400;52.392;9.750;2022-11-15T15:25:28;3.63;;;2.38;;
30635;SDS011;17400;52.392;9.750;2022-11-15T15:27:58;3.75;;;2.22;;
30635;SDS011;17400;52.392;9.750;2022-11-15T15:30:27;7.10;;;2.25;;